sensor_id;sensor_type;location;lat;lon;timestamp;temperature;humidity
70734;DHT22;58320;48.804;9.252;2022-07-24T00:00:39;21.40;66.20
70734;DHT22;58320;48.804;9.252;2022-07-24T00:03:05;21.40;66.40
70734;DHT22;58320;48.804;9.252;2022-07-24T00:05:31;21.30;66.60
70734;DHT22;58320;48.804;9.252;2022-07-24T00:07:57;21.30;67.00
70734;DHT22;58320;48.804;9.252;2022-07-24T00:10:23;21.30;67.30
70734;DHT22;58320;48.804;9.252;2022-07-24T00:12:49;21.20;67.60
70734;DHT22;58320;48.804;9.252;2022-07-24T00:15:15;21.20;67.90
70734;DHT22;58320;48.804;9.252;2022-07-24T00:17:42;21.20;68.40
70734;DHT22;58320;48.804;9.252;2022-07-24T00:20:08;21.10;68.50
70734;DHT22;58320;48.804;9.252;2022-07-24T00:22:35;21.10;68.90
70734;DHT22;58320;48.804;9.252;2022-07-24T00:25:01;21.10;69.10
70734;DHT22;58320;48.804;9.252;2022-07-24T00:27:28;21.10;69.10
70734;DHT22;58320;48.804;9.252;2022-07-24T00:29:54;21.00;69.20
70734;DHT22;58320;48.804;9.252;2022-07-24T00:32:20;21.00;69.20
70734;DHT22;58320;48.804;9.252;2022-07-24T00:34:46;21.00;69.20
70734;DHT22;58320;48.804;9.252;2022-07-24T00:37:11;21.00;69.30
70734;DHT22;58320;48.804;9.252;2022-07-24T00:39:37;20.90;69.50
70734;DHT22;58320;48.804;9.252;2022-07-24T00:42:03;20.90;69.70
70734;DHT22;58320;48.804;9.252;2022-07-24T00:44:29;20.80;69.70
70734;DHT22;58320;48.804;9.252;2022-07-24T00:46:55;20.80;69.70
70734;DHT22;58320;48.804;9.252;2022-07-24T00:49:21;20.80;69.70
70734;DHT22;58320;48.804;9.252;2022-07-24T00:51:50;20.80;69.70
70734;DHT22;58320;48.804;9.252;2022-07-24T00:54:19;20.70;69.80
70734;DHT22;58320;48.804;9.252;2022-07-24T00:56:48;20.70;69.80
70734;DHT22;58320;48.804;9.252;2022-07-24T00:59:16;20.70;69.90
70734;DHT22;58320;48.804;9.252;2022-07-24T01:01:42;20.70;69.90
70734;DHT22;58320;48.804;9.252;2022-07-24T01:04:08;20.70;70.00
70734;DHT22;58320;48.804;9.252;2022-07-24T01:06:34;20.70;70.30
70734;DHT22;58320;48.804;9.252;2022-07-24T01:08:59;20.70;70.50
70734;DHT22;58320;48.804;9.252;2022-07-24T01:11:26;20.70;70.90
70734;DHT22;58320;48.804;9.252;2022-07-24T01:13:52;20.60;71.10
70734;DHT22;58320;48.804;9.252;2022-07-24T01:16:18;20.60;71.40
70734;DHT22;58320;48.804;9.252;2022-07-24T01:18:44;20.50;71.40
70734;DHT22;58320;48.804;9.252;2022-07-24T01:21:10;20.50;71.40
70734;DHT22;58320;48.804;9.252;2022-07-24T01:23:36;20.40;71.50
70734;DHT22;58320;48.804;9.252;2022-07-24T01:26:02;20.40;71.80
70734;DHT22;58320;48.804;9.252;2022-07-24T01:28:32;20.40;72.10
70734;DHT22;58320;48.804;9.252;2022-07-24T01:30:58;20.40;72.20
70734;DHT22;58320;48.804;9.252;2022-07-24T01:33:24;20.30;72.40
70734;DHT22;58320;48.804;9.252;2022-07-24T01:35:50;20.30;72.60
70734;DHT22;58320;48.804;9.252;2022-07-24T01:38:17;20.20;72.70
70734;DHT22;58320;48.804;9.252;2022-07-24T01:40:43;20.20;72.90
70734;DHT22;58320;48.804;9.252;2022-07-24T01:43:09;20.10;72.90
70734;DHT22;58320;48.804;9.252;2022-07-24T01:45:36;20.10;73.00
70734;DHT22;58320;48.804;9.252;2022-07-24T01:48:02;20.10;73.10
70734;DHT22;58320;48.804;9.252;2022-07-24T01:50:29;20.10;73.30
70734;DHT22;58320;48.804;9.252;2022-07-24T01:52:56;20.10;73.40
70734;DHT22;58320;48.804;9.252;2022-07-24T01:55:22;20.10;73.60
70734;DHT22;58320;48.804;9.252;2022-07-24T01:57:49;20.00;73.60
70734;DHT22;58320;48.804;9.252;2022-07-24T02:00:15;20.00;73.80
70734;DHT22;58320;48.804;9.252;2022-07-24T02:02:43;20.00;74.00
70734;DHT22;58320;48.804;9.252;2022-07-24T02:05:14;19.90;74.50
70734;DHT22;58320;48.804;9.252;2022-07-24T02:07:41;19.90;74.30
70734;DHT22;58320;48.804;9.252;2022-07-24T02:10:08;19.80;74.50
70734;DHT22;58320;48.804;9.252;2022-07-24T02:12:35;19.70;75.00
70734;DHT22;58320;48.804;9.252;2022-07-24T02:15:01;19.70;75.30
70734;DHT22;58320;48.804;9.252;2022-07-24T02:17:28;19.60;75.30
70734;DHT22;58320;48.804;9.252;2022-07-24T02:19:54;19.50;75.40
70734;DHT22;58320;48.804;9.252;2022-07-24T02:22:20;19.50;75.70
70734;DHT22;58320;48.804;9.252;2022-07-24T02:24:45;19.50;75.80
70734;DHT22;58320;48.804;9.252;2022-07-24T02:27:11;19.40;75.90
70734;DHT22;58320;48.804;9.252;2022-07-24T02:29:37;19.40;76.10
70734;DHT22;58320;48.804;9.252;2022-07-24T02:32:05;19.30;76.30
70734;DHT22;58320;48.804;9.252;2022-07-24T02:34:32;19.30;76.60
70734;DHT22;58320;48.804;9.252;2022-07-24T02:36:57;19.30;76.90
70734;DHT22;58320;48.804;9.252;2022-07-24T02:39:23;19.30;76.90
70734;DHT22;58320;48.804;9.252;2022-07-24T02:41:49;19.30;77.10
70734;DHT22;58320;48.804;9.252;2022-07-24T02:44:15;19.20;77.00
70734;DHT22;58320;48.804;9.252;2022-07-24T02:46:41;19.20;77.10
70734;DHT22;58320;48.804;9.252;2022-07-24T02:49:07;19.20;77.00
70734;DHT22;58320;48.804;9.252;2022-07-24T02:51:33;19.10;77.40
70734;DHT22;58320;48.804;9.252;2022-07-24T02:53:59;19.10;77.50
70734;DHT22;58320;48.804;9.252;2022-07-24T02:56:24;19.00;77.70
70734;DHT22;58320;48.804;9.252;2022-07-24T02:58:50;19.00;77.90
70734;DHT22;58320;48.804;9.252;2022-07-24T03:01:16;19.00;78.00
70734;DHT22;58320;48.804;9.252;2022-07-24T03:03:42;19.00;78.30
70734;DHT22;58320;48.804;9.252;2022-07-24T03:06:07;18.90;78.30
70734;DHT22;58320;48.804;9.252;2022-07-24T03:08:33;18.90;78.20
70734;DHT22;58320;48.804;9.252;2022-07-24T03:10:59;18.80;78.30
70734;DHT22;58320;48.804;9.252;2022-07-24T03:13:25;18.80;78.40
70734;DHT22;58320;48.804;9.252;2022-07-24T03:15:51;18.80;78.70
70734;DHT22;58320;48.804;9.252;2022-07-24T03:18:16;18.80;78.80
70734;DHT22;58320;48.804;9.252;2022-07-24T03:20:42;18.80;79.00
70734;DHT22;58320;48.804;9.252;2022-07-24T03:23:08;18.80;79.00
70734;DHT22;58320;48.804;9.252;2022-07-24T03:25:34;18.80;79.00
70734;DHT22;58320;48.804;9.252;2022-07-24T03:27:59;18.80;79.00
70734;DHT22;58320;48.804;9.252;2022-07-24T03:30:25;18.80;79.20
70734;DHT22;58320;48.804;9.252;2022-07-24T03:32:51;18.70;79.10
70734;DHT22;58320;48.804;9.252;2022-07-24T03:35:17;18.70;79.10
70734;DHT22;58320;48.804;9.252;2022-07-24T03:37:43;18.70;79.40
70734;DHT22;58320;48.804;9.252;2022-07-24T03:40:09;18.70;79.70
70734;DHT22;58320;48.804;9.252;2022-07-24T03:42:35;18.70;80.00
70734;DHT22;58320;48.804;9.252;2022-07-24T03:45:01;18.60;80.00
70734;DHT22;58320;48.804;9.252;2022-07-24T03:47:28;18.60;80.10
70734;DHT22;58320;48.804;9.252;2022-07-24T03:49:53;18.60;80.10
70734;DHT22;58320;48.804;9.252;2022-07-24T03:52:19;18.60;80.00
70734;DHT22;58320;48.804;9.252;2022-07-24T03:54:45;18.50;80.20
70734;DHT22;58320;48.804;9.252;2022-07-24T03:57:11;18.50;80.70
70734;DHT22;58320;48.804;9.252;2022-07-24T03:59:36;18.50;81.00
70734;DHT22;58320;48.804;9.252;2022-07-24T04:02:02;18.60;81.40
70734;DHT22;58320;48.804;9.252;2022-07-24T04:04:28;18.60;81.90
70734;DHT22;58320;48.804;9.252;2022-07-24T04:06:54;18.60;81.60
70734;DHT22;58320;48.804;9.252;2022-07-24T04:09:20;18.60;81.40
70734;DHT22;58320;48.804;9.252;2022-07-24T04:11:46;18.60;81.30
70734;DHT22;58320;48.804;9.252;2022-07-24T04:14:13;18.60;81.40
70734;DHT22;58320;48.804;9.252;2022-07-24T04:16:38;18.70;81.40
70734;DHT22;58320;48.804;9.252;2022-07-24T04:19:05;18.70;81.60
70734;DHT22;58320;48.804;9.252;2022-07-24T04:21:30;18.70;81.40
70734;DHT22;58320;48.804;9.252;2022-07-24T04:23:56;18.70;81.20
70734;DHT22;58320;48.804;9.252;2022-07-24T04:26:22;18.70;81.20
70734;DHT22;58320;48.804;9.252;2022-07-24T04:28:48;18.70;81.20
70734;DHT22;58320;48.804;9.252;2022-07-24T04:31:14;18.70;81.10
70734;DHT22;58320;48.804;9.252;2022-07-24T04:33:40;18.70;81.10
70734;DHT22;58320;48.804;9.252;2022-07-24T04:36:06;18.80;80.90
70734;DHT22;58320;48.804;9.252;2022-07-24T04:38:33;18.80;80.80
70734;DHT22;58320;48.804;9.252;2022-07-24T04:41:00;18.80;80.70
70734;DHT22;58320;48.804;9.252;2022-07-24T04:43:26;18.80;80.60
70734;DHT22;58320;48.804;9.252;2022-07-24T04:45:52;18.90;80.50
70734;DHT22;58320;48.804;9.252;2022-07-24T04:48:17;19.00;80.40
70734;DHT22;58320;48.804;9.252;2022-07-24T04:50:43;19.10;80.10
70734;DHT22;58320;48.804;9.252;2022-07-24T04:53:09;19.20;79.80
70734;DHT22;58320;48.804;9.252;2022-07-24T04:55:35;19.30;79.50
70734;DHT22;58320;48.804;9.252;2022-07-24T04:58:01;19.40;79.20
70734;DHT22;58320;48.804;9.252;2022-07-24T05:00:26;19.50;79.10
70734;DHT22;58320;48.804;9.252;2022-07-24T05:02:52;19.50;78.80
70734;DHT22;58320;48.804;9.252;2022-07-24T05:05:18;19.50;78.60
70734;DHT22;58320;48.804;9.252;2022-07-24T05:07:44;19.60;78.60
70734;DHT22;58320;48.804;9.252;2022-07-24T05:10:10;19.70;78.30
70734;DHT22;58320;48.804;9.252;2022-07-24T05:12:36;19.80;78.00
70734;DHT22;58320;48.804;9.252;2022-07-24T05:15:03;19.90;77.80
70734;DHT22;58320;48.804;9.252;2022-07-24T05:17:30;19.90;77.40
70734;DHT22;58320;48.804;9.252;2022-07-24T05:19:56;20.00;77.00
70734;DHT22;58320;48.804;9.252;2022-07-24T05:22:21;20.10;76.60
70734;DHT22;58320;48.804;9.252;2022-07-24T05:24:47;20.10;76.40
70734;DHT22;58320;48.804;9.252;2022-07-24T05:27:13;20.20;75.90
70734;DHT22;58320;48.804;9.252;2022-07-24T05:29:39;20.20;75.70
70734;DHT22;58320;48.804;9.252;2022-07-24T05:32:05;20.30;75.60
70734;DHT22;58320;48.804;9.252;2022-07-24T05:34:31;20.40;75.70
70734;DHT22;58320;48.804;9.252;2022-07-24T05:36:57;20.50;75.50
70734;DHT22;58320;48.804;9.252;2022-07-24T05:39:23;20.60;75.20
70734;DHT22;58320;48.804;9.252;2022-07-24T05:41:49;20.70;74.90
70734;DHT22;58320;48.804;9.252;2022-07-24T05:44:15;20.80;74.10
70734;DHT22;58320;48.804;9.252;2022-07-24T05:46:40;20.90;74.40
70734;DHT22;58320;48.804;9.252;2022-07-24T05:49:06;21.00;73.80
70734;DHT22;58320;48.804;9.252;2022-07-24T05:51:32;21.10;72.20
70734;DHT22;58320;48.804;9.252;2022-07-24T05:53:58;21.20;72.10
70734;DHT22;58320;48.804;9.252;2022-07-24T05:56:24;21.30;72.30
70734;DHT22;58320;48.804;9.252;2022-07-24T05:58:49;21.40;71.70
70734;DHT22;58320;48.804;9.252;2022-07-24T06:01:15;21.50;70.10
70734;DHT22;58320;48.804;9.252;2022-07-24T06:03:41;21.60;69.90
70734;DHT22;58320;48.804;9.252;2022-07-24T06:06:07;21.80;69.70
70734;DHT22;58320;48.804;9.252;2022-07-24T06:08:33;21.90;69.00
70734;DHT22;58320;48.804;9.252;2022-07-24T06:10:58;22.00;67.70
70734;DHT22;58320;48.804;9.252;2022-07-24T06:13:24;22.10;67.60
70734;DHT22;58320;48.804;9.252;2022-07-24T06:15:50;22.20;67.10
70734;DHT22;58320;48.804;9.252;2022-07-24T06:18:16;22.40;66.40
70734;DHT22;58320;48.804;9.252;2022-07-24T06:20:41;22.50;66.10
70734;DHT22;58320;48.804;9.252;2022-07-24T06:23:07;22.50;66.00
70734;DHT22;58320;48.804;9.252;2022-07-24T06:25:33;22.60;66.40
70734;DHT22;58320;48.804;9.252;2022-07-24T06:27:59;22.70;66.60
70734;DHT22;58320;48.804;9.252;2022-07-24T06:30:26;22.90;65.60
70734;DHT22;58320;48.804;9.252;2022-07-24T06:32:55;23.00;64.30
70734;DHT22;58320;48.804;9.252;2022-07-24T06:35:23;23.10;63.40
70734;DHT22;58320;48.804;9.252;2022-07-24T06:37:50;23.20;63.40
70734;DHT22;58320;48.804;9.252;2022-07-24T06:40:17;23.30;63.60
70734;DHT22;58320;48.804;9.252;2022-07-24T06:42:44;23.40;63.20
70734;DHT22;58320;48.804;9.252;2022-07-24T06:45:11;23.60;61.90
70734;DHT22;58320;48.804;9.252;2022-07-24T06:47:38;23.50;60.30
70734;DHT22;58320;48.804;9.252;2022-07-24T06:50:05;23.60;60.50
70734;DHT22;58320;48.804;9.252;2022-07-24T06:52:31;23.80;60.90
70734;DHT22;58320;48.804;9.252;2022-07-24T06:54:57;23.90;59.90
70734;DHT22;58320;48.804;9.252;2022-07-24T06:57:23;23.90;59.70
70734;DHT22;58320;48.804;9.252;2022-07-24T06:59:51;24.00;59.00
70734;DHT22;58320;48.804;9.252;2022-07-24T07:02:18;24.20;58.90
70734;DHT22;58320;48.804;9.252;2022-07-24T07:04:44;24.30;57.60
70734;DHT22;58320;48.804;9.252;2022-07-24T07:07:10;24.40;57.10
70734;DHT22;58320;48.804;9.252;2022-07-24T07:09:36;24.50;56.50
70734;DHT22;58320;48.804;9.252;2022-07-24T07:12:03;24.70;56.40
70734;DHT22;58320;48.804;9.252;2022-07-24T07:14:30;24.90;56.30
70734;DHT22;58320;48.804;9.252;2022-07-24T07:16:56;24.90;56.20
70734;DHT22;58320;48.804;9.252;2022-07-24T07:19:22;25.00;56.70
70734;DHT22;58320;48.804;9.252;2022-07-24T07:21:48;25.00;55.20
70734;DHT22;58320;48.804;9.252;2022-07-24T07:24:14;25.10;55.20
70734;DHT22;58320;48.804;9.252;2022-07-24T07:26:39;25.40;54.90
70734;DHT22;58320;48.804;9.252;2022-07-24T07:29:05;25.60;52.80
70734;DHT22;58320;48.804;9.252;2022-07-24T07:31:31;25.70;53.20
70734;DHT22;58320;48.804;9.252;2022-07-24T07:33:57;25.80;52.50
70734;DHT22;58320;48.804;9.252;2022-07-24T07:36:24;26.00;52.40
70734;DHT22;58320;48.804;9.252;2022-07-24T07:38:50;26.20;52.50
70734;DHT22;58320;48.804;9.252;2022-07-24T07:41:17;26.30;51.70
70734;DHT22;58320;48.804;9.252;2022-07-24T07:43:45;26.50;50.10
70734;DHT22;58320;48.804;9.252;2022-07-24T07:46:13;26.60;50.40
70734;DHT22;58320;48.804;9.252;2022-07-24T07:48:40;26.70;50.20
70734;DHT22;58320;48.804;9.252;2022-07-24T07:51:06;26.70;50.40
70734;DHT22;58320;48.804;9.252;2022-07-24T07:53:32;26.80;49.80
70734;DHT22;58320;48.804;9.252;2022-07-24T07:55:57;27.00;47.20
70734;DHT22;58320;48.804;9.252;2022-07-24T07:58:23;27.10;47.00
70734;DHT22;58320;48.804;9.252;2022-07-24T08:00:51;27.40;46.00
70734;DHT22;58320;48.804;9.252;2022-07-24T08:03:17;27.80;45.20
70734;DHT22;58320;48.804;9.252;2022-07-24T08:05:43;27.90;45.50
70734;DHT22;58320;48.804;9.252;2022-07-24T08:08:09;28.00;46.40
70734;DHT22;58320;48.804;9.252;2022-07-24T08:10:35;27.90;45.50
70734;DHT22;58320;48.804;9.252;2022-07-24T08:13:01;27.60;45.40
70734;DHT22;58320;48.804;9.252;2022-07-24T08:15:27;27.20;46.10
70734;DHT22;58320;48.804;9.252;2022-07-24T08:17:54;27.00;47.00
70734;DHT22;58320;48.804;9.252;2022-07-24T08:20:22;27.00;47.30
70734;DHT22;58320;48.804;9.252;2022-07-24T08:22:49;27.10;46.60
70734;DHT22;58320;48.804;9.252;2022-07-24T08:25:15;27.40;47.00
70734;DHT22;58320;48.804;9.252;2022-07-24T08:27:42;27.50;46.60
70734;DHT22;58320;48.804;9.252;2022-07-24T08:30:08;27.70;46.20
70734;DHT22;58320;48.804;9.252;2022-07-24T08:32:35;27.60;45.80
70734;DHT22;58320;48.804;9.252;2022-07-24T08:35:01;27.60;46.80
70734;DHT22;58320;48.804;9.252;2022-07-24T08:37:27;27.70;46.20
70734;DHT22;58320;48.804;9.252;2022-07-24T08:39:54;27.80;45.20
70734;DHT22;58320;48.804;9.252;2022-07-24T08:42:20;27.90;45.10
70734;DHT22;58320;48.804;9.252;2022-07-24T08:44:47;27.90;45.30
70734;DHT22;58320;48.804;9.252;2022-07-24T08:47:14;28.00;45.30
70734;DHT22;58320;48.804;9.252;2022-07-24T08:49:41;28.10;45.60
70734;DHT22;58320;48.804;9.252;2022-07-24T08:52:09;28.20;44.50
70734;DHT22;58320;48.804;9.252;2022-07-24T08:54:36;28.30;44.00
70734;DHT22;58320;48.804;9.252;2022-07-24T08:57:03;28.20;44.40
70734;DHT22;58320;48.804;9.252;2022-07-24T08:59:29;28.20;44.90
70734;DHT22;58320;48.804;9.252;2022-07-24T09:01:55;28.20;44.90
70734;DHT22;58320;48.804;9.252;2022-07-24T09:04:35;28.30;44.10
70734;DHT22;58320;48.804;9.252;2022-07-24T09:07:13;28.30;43.80
70734;DHT22;58320;48.804;9.252;2022-07-24T09:09:44;28.20;44.90
70734;DHT22;58320;48.804;9.252;2022-07-24T09:12:22;28.40;44.60
70734;DHT22;58320;48.804;9.252;2022-07-24T09:14:48;28.50;44.70
70734;DHT22;58320;48.804;9.252;2022-07-24T09:17:16;28.60;43.60
70734;DHT22;58320;48.804;9.252;2022-07-24T09:20:09;28.70;44.20
70734;DHT22;58320;48.804;9.252;2022-07-24T09:27:57;29.30;42.50
70734;DHT22;58320;48.804;9.252;2022-07-24T09:30:34;29.30;42.90
70734;DHT22;58320;48.804;9.252;2022-07-24T09:35:41;29.60;41.90
70734;DHT22;58320;48.804;9.252;2022-07-24T09:38:11;29.60;41.80
70734;DHT22;58320;48.804;9.252;2022-07-24T09:40:40;29.70;42.30
70734;DHT22;58320;48.804;9.252;2022-07-24T09:48:17;29.80;41.10
70734;DHT22;58320;48.804;9.252;2022-07-24T09:50:53;29.70;40.40
70734;DHT22;58320;48.804;9.252;2022-07-24T09:53:26;29.60;41.40
70734;DHT22;58320;48.804;9.252;2022-07-24T09:58:23;29.90;40.40
70734;DHT22;58320;48.804;9.252;2022-07-24T10:00:54;30.00;41.00
70734;DHT22;58320;48.804;9.252;2022-07-24T10:03:25;30.30;40.60
70734;DHT22;58320;48.804;9.252;2022-07-24T10:05:55;30.80;40.20
70734;DHT22;58320;48.804;9.252;2022-07-24T10:08:22;31.30;39.60
70734;DHT22;58320;48.804;9.252;2022-07-24T10:10:52;31.70;38.40
70734;DHT22;58320;48.804;9.252;2022-07-24T10:13:18;31.90;38.10
70734;DHT22;58320;48.804;9.252;2022-07-24T10:15:53;32.20;37.40
70734;DHT22;58320;48.804;9.252;2022-07-24T10:18:32;32.60;36.80
70734;DHT22;58320;48.804;9.252;2022-07-24T10:21:21;32.70;38.00
70734;DHT22;58320;48.804;9.252;2022-07-24T10:26:47;32.70;37.30
70734;DHT22;58320;48.804;9.252;2022-07-24T10:29:21;32.20;37.00
70734;DHT22;58320;48.804;9.252;2022-07-24T10:31:50;31.70;38.10
70734;DHT22;58320;48.804;9.252;2022-07-24T10:42:28;31.40;38.80
70734;DHT22;58320;48.804;9.252;2022-07-24T10:45:16;31.50;38.10
70734;DHT22;58320;48.804;9.252;2022-07-24T10:47:44;31.40;38.60
70734;DHT22;58320;48.804;9.252;2022-07-24T10:50:11;31.30;38.30
70734;DHT22;58320;48.804;9.252;2022-07-24T10:52:40;31.30;38.30
70734;DHT22;58320;48.804;9.252;2022-07-24T10:55:39;31.30;38.50
70734;DHT22;58320;48.804;9.252;2022-07-24T10:58:12;31.20;38.50
70734;DHT22;58320;48.804;9.252;2022-07-24T11:00:47;31.00;38.20
70734;DHT22;58320;48.804;9.252;2022-07-24T11:03:25;30.80;38.70
70734;DHT22;58320;48.804;9.252;2022-07-24T11:08:54;30.50;38.70
70734;DHT22;58320;48.804;9.252;2022-07-24T11:11:22;30.50;39.30
70734;DHT22;58320;48.804;9.252;2022-07-24T11:13:53;30.70;39.80
70734;DHT22;58320;48.804;9.252;2022-07-24T11:16:24;31.00;39.30
70734;DHT22;58320;48.804;9.252;2022-07-24T11:21:40;31.80;38.60
70734;DHT22;58320;48.804;9.252;2022-07-24T11:24:25;32.20;37.50
70734;DHT22;58320;48.804;9.252;2022-07-24T11:27:02;32.60;37.60
70734;DHT22;58320;48.804;9.252;2022-07-24T11:29:31;33.00;37.00
70734;DHT22;58320;48.804;9.252;2022-07-24T11:34:32;33.40;35.60
70734;DHT22;58320;48.804;9.252;2022-07-24T11:36:59;33.30;36.00
70734;DHT22;58320;48.804;9.252;2022-07-24T11:42:02;33.30;35.50
70734;DHT22;58320;48.804;9.252;2022-07-24T11:44:41;33.70;35.30
70734;DHT22;58320;48.804;9.252;2022-07-24T11:52:25;36.70;30.80
70734;DHT22;58320;48.804;9.252;2022-07-24T11:54:54;36.80;30.60
70734;DHT22;58320;48.804;9.252;2022-07-24T11:57:36;37.10;30.30
70734;DHT22;58320;48.804;9.252;2022-07-24T12:00:12;37.20;30.30
70734;DHT22;58320;48.804;9.252;2022-07-24T12:02:49;36.90;30.50
70734;DHT22;58320;48.804;9.252;2022-07-24T12:05:25;36.00;31.10
70734;DHT22;58320;48.804;9.252;2022-07-24T12:07:56;35.40;31.80
70734;DHT22;58320;48.804;9.252;2022-07-24T12:10:24;36.10;32.00
70734;DHT22;58320;48.804;9.252;2022-07-24T12:12:52;36.80;30.80
70734;DHT22;58320;48.804;9.252;2022-07-24T12:15:20;37.50;30.40
70734;DHT22;58320;48.804;9.252;2022-07-24T12:18:07;38.30;29.20
70734;DHT22;58320;48.804;9.252;2022-07-24T12:20:35;39.30;27.70
70734;DHT22;58320;48.804;9.252;2022-07-24T12:23:05;40.00;27.20
70734;DHT22;58320;48.804;9.252;2022-07-24T12:25:33;40.10;27.30
70734;DHT22;58320;48.804;9.252;2022-07-24T12:28:08;39.60;27.90
70734;DHT22;58320;48.804;9.252;2022-07-24T12:30:41;39.60;27.40
70734;DHT22;58320;48.804;9.252;2022-07-24T12:36:07;37.80;29.30
70734;DHT22;58320;48.804;9.252;2022-07-24T12:41:17;37.90;29.10
70734;DHT22;58320;48.804;9.252;2022-07-24T12:43:52;38.00;28.70
70734;DHT22;58320;48.804;9.252;2022-07-24T12:46:21;37.50;29.20
70734;DHT22;58320;48.804;9.252;2022-07-24T12:49:14;37.50;28.90
70734;DHT22;58320;48.804;9.252;2022-07-24T12:51:57;37.50;29.30
70734;DHT22;58320;48.804;9.252;2022-07-24T12:54:28;37.70;29.20
70734;DHT22;58320;48.804;9.252;2022-07-24T12:57:00;37.80;28.80
70734;DHT22;58320;48.804;9.252;2022-07-24T12:59:38;38.20;28.90
70734;DHT22;58320;48.804;9.252;2022-07-24T13:04:40;38.70;28.10
70734;DHT22;58320;48.804;9.252;2022-07-24T13:07:09;39.30;28.30
70734;DHT22;58320;48.804;9.252;2022-07-24T13:09:36;39.60;27.30
70734;DHT22;58320;48.804;9.252;2022-07-24T13:12:02;39.90;27.20
70734;DHT22;58320;48.804;9.252;2022-07-24T13:14:28;40.90;27.00
70734;DHT22;58320;48.804;9.252;2022-07-24T13:17:02;41.70;25.70
70734;DHT22;58320;48.804;9.252;2022-07-24T13:19:39;41.30;25.30
70734;DHT22;58320;48.804;9.252;2022-07-24T13:22:06;41.10;26.40
70734;DHT22;58320;48.804;9.252;2022-07-24T13:24:32;41.70;25.40
70734;DHT22;58320;48.804;9.252;2022-07-24T13:26:59;42.10;25.00
70734;DHT22;58320;48.804;9.252;2022-07-24T13:29:26;42.20;24.80
70734;DHT22;58320;48.804;9.252;2022-07-24T13:31:53;42.20;24.60
70734;DHT22;58320;48.804;9.252;2022-07-24T13:34:19;42.30;24.70
70734;DHT22;58320;48.804;9.252;2022-07-24T13:36:45;42.50;24.30
70734;DHT22;58320;48.804;9.252;2022-07-24T13:39:12;42.70;24.10
70734;DHT22;58320;48.804;9.252;2022-07-24T13:41:39;42.30;24.10
70734;DHT22;58320;48.804;9.252;2022-07-24T13:44:05;41.80;24.40
70734;DHT22;58320;48.804;9.252;2022-07-24T13:46:32;42.10;24.50
70734;DHT22;58320;48.804;9.252;2022-07-24T13:49:01;41.50;24.50
70734;DHT22;58320;48.804;9.252;2022-07-24T13:51:28;39.20;26.40
70734;DHT22;58320;48.804;9.252;2022-07-24T13:53:55;39.00;26.90
70734;DHT22;58320;48.804;9.252;2022-07-24T13:56:21;39.50;26.60
70734;DHT22;58320;48.804;9.252;2022-07-24T13:58:48;38.80;27.00
70734;DHT22;58320;48.804;9.252;2022-07-24T14:01:14;38.70;27.20
70734;DHT22;58320;48.804;9.252;2022-07-24T14:03:42;39.10;26.70
70734;DHT22;58320;48.804;9.252;2022-07-24T14:06:09;39.40;26.90
70734;DHT22;58320;48.804;9.252;2022-07-24T14:08:37;40.10;26.60
70734;DHT22;58320;48.804;9.252;2022-07-24T14:11:03;40.20;25.80
70734;DHT22;58320;48.804;9.252;2022-07-24T14:13:29;39.30;27.40
70734;DHT22;58320;48.804;9.252;2022-07-24T14:15:55;39.00;27.10
70734;DHT22;58320;48.804;9.252;2022-07-24T14:18:22;39.70;26.20
70734;DHT22;58320;48.804;9.252;2022-07-24T14:20:48;40.80;25.70
70734;DHT22;58320;48.804;9.252;2022-07-24T14:23:14;40.50;26.00
70734;DHT22;58320;48.804;9.252;2022-07-24T14:25:40;40.00;26.60
70734;DHT22;58320;48.804;9.252;2022-07-24T14:28:06;40.20;26.60
70734;DHT22;58320;48.804;9.252;2022-07-24T14:30:32;40.20;26.10
70734;DHT22;58320;48.804;9.252;2022-07-24T14:32:58;39.50;26.90
70734;DHT22;58320;48.804;9.252;2022-07-24T14:35:24;39.70;26.90
70734;DHT22;58320;48.804;9.252;2022-07-24T14:37:50;40.40;26.30
70734;DHT22;58320;48.804;9.252;2022-07-24T14:40:16;41.20;25.50
70734;DHT22;58320;48.804;9.252;2022-07-24T14:42:42;41.90;24.50
70734;DHT22;58320;48.804;9.252;2022-07-24T14:45:08;42.10;24.10
70734;DHT22;58320;48.804;9.252;2022-07-24T14:47:34;41.90;24.50
70734;DHT22;58320;48.804;9.252;2022-07-24T14:50:00;40.30;25.40
70734;DHT22;58320;48.804;9.252;2022-07-24T14:52:26;38.60;27.30
70734;DHT22;58320;48.804;9.252;2022-07-24T14:54:52;37.40;28.90
70734;DHT22;58320;48.804;9.252;2022-07-24T14:57:18;36.40;29.80
70734;DHT22;58320;48.804;9.252;2022-07-24T14:59:44;36.30;29.80
70734;DHT22;58320;48.804;9.252;2022-07-24T15:02:10;37.70;29.00
70734;DHT22;58320;48.804;9.252;2022-07-24T15:04:36;39.30;27.30
70734;DHT22;58320;48.804;9.252;2022-07-24T15:07:03;40.20;26.20
70734;DHT22;58320;48.804;9.252;2022-07-24T15:09:29;40.50;26.10
70734;DHT22;58320;48.804;9.252;2022-07-24T15:11:55;40.10;26.00
70734;DHT22;58320;48.804;9.252;2022-07-24T15:14:21;40.00;26.40
70734;DHT22;58320;48.804;9.252;2022-07-24T15:16:47;41.10;25.40
70734;DHT22;58320;48.804;9.252;2022-07-24T15:19:13;42.00;24.00
70734;DHT22;58320;48.804;9.252;2022-07-24T15:21:38;42.80;23.80
70734;DHT22;58320;48.804;9.252;2022-07-24T15:24:06;43.70;23.10
70734;DHT22;58320;48.804;9.252;2022-07-24T15:26:35;44.40;22.80
70734;DHT22;58320;48.804;9.252;2022-07-24T15:29:03;45.30;21.70
70734;DHT22;58320;48.804;9.252;2022-07-24T15:31:30;45.80;21.40
70734;DHT22;58320;48.804;9.252;2022-07-24T15:33:56;45.90;21.10
70734;DHT22;58320;48.804;9.252;2022-07-24T15:36:22;45.80;21.20
70734;DHT22;58320;48.804;9.252;2022-07-24T15:38:47;45.50;21.50
70734;DHT22;58320;48.804;9.252;2022-07-24T15:41:13;45.50;21.20
70734;DHT22;58320;48.804;9.252;2022-07-24T15:43:40;45.00;21.40
70734;DHT22;58320;48.804;9.252;2022-07-24T15:46:06;44.90;21.40
70734;DHT22;58320;48.804;9.252;2022-07-24T15:48:32;45.00;21.70
70734;DHT22;58320;48.804;9.252;2022-07-24T15:50:57;45.80;21.20
70734;DHT22;58320;48.804;9.252;2022-07-24T15:53:23;46.70;20.50
70734;DHT22;58320;48.804;9.252;2022-07-24T15:55:49;46.80;20.00
70734;DHT22;58320;48.804;9.252;2022-07-24T15:58:15;46.80;20.10
70734;DHT22;58320;48.804;9.252;2022-07-24T16:00:41;46.80;19.90
70734;DHT22;58320;48.804;9.252;2022-07-24T16:03:07;46.70;20.30
70734;DHT22;58320;48.804;9.252;2022-07-24T16:05:33;46.60;20.40
70734;DHT22;58320;48.804;9.252;2022-07-24T16:07:58;46.30;20.30
70734;DHT22;58320;48.804;9.252;2022-07-24T16:10:25;45.70;20.80
70734;DHT22;58320;48.804;9.252;2022-07-24T16:12:51;45.30;21.20
70734;DHT22;58320;48.804;9.252;2022-07-24T16:15:17;44.90;21.40
70734;DHT22;58320;48.804;9.252;2022-07-24T16:17:43;44.80;21.80
70734;DHT22;58320;48.804;9.252;2022-07-24T16:20:10;44.00;21.50
70734;DHT22;58320;48.804;9.252;2022-07-24T16:22:40;43.30;22.40